createdAt,value
2022-12-01T00:00:09.285Z,1.30
2022-12-01T00:02:37.937Z,1.30
2022-12-01T00:05:07.033Z,1.10
2022-12-01T00:07:35.486Z,1.30
2022-12-01T00:10:21.302Z,1.60
2022-12-01T00:12:50.437Z,1.50
2022-12-01T00:15:20.255Z,1.30
2022-12-01T00:17:50.528Z,0.90
2022-12-01T00:20:19.451Z,1.00
2022-12-01T00:22:51.179Z,1.30
2022-12-01T00:25:20.407Z,1.10
2022-12-01T00:27:50.254Z,1.60
2022-12-01T00:30:23.179Z,1.10
2022-12-01T00:32:51.753Z,0.80
2022-12-01T00:35:19.998Z,1.10
2022-12-01T00:37:48.816Z,0.50
2022-12-01T00:40:20.004Z,1.10
2022-12-01T00:42:48.457Z,0.20
2022-12-01T00:45:16.946Z,0.50
2022-12-01T00:47:49.111Z,1.10
2022-12-01T00:50:18.506Z,0.40
2022-12-01T00:52:48.409Z,1.10
2022-12-01T00:55:18.038Z,1.20
2022-12-01T00:57:47.739Z,1.00
2022-12-01T01:00:17.743Z,1.10
2022-12-01T01:02:48.139Z,1.00
2022-12-01T01:05:16.877Z,0.80
2022-12-01T01:07:45.266Z,1.00
2022-12-01T01:10:34.417Z,1.00
2022-12-01T01:13:03.446Z,0.80
2022-12-01T01:15:31.918Z,1.10
2022-12-01T01:18:03.919Z,0.60
2022-12-01T01:20:32.832Z,0.40
2022-12-01T01:23:01.098Z,0.70
2022-12-01T01:25:29.279Z,0.70
2022-12-01T01:27:57.659Z,0.90
2022-12-01T01:30:27.307Z,1.20
2022-12-01T01:32:55.545Z,0.90
2022-12-01T01:35:25.788Z,1.00
2022-12-01T01:37:54.250Z,1.20
2022-12-01T01:40:22.521Z,1.20
2022-12-01T01:42:50.887Z,1.40
2022-12-01T01:45:24.222Z,1.40
2022-12-01T01:47:54.573Z,1.30
2022-12-01T01:50:28.261Z,0.60
2022-12-01T01:53:02.131Z,1.40
2022-12-01T01:55:31.447Z,1.30
2022-12-01T01:58:00.250Z,0.60
2022-12-01T02:00:28.472Z,1.30
2022-12-01T02:02:59.230Z,0.50
2022-12-01T02:05:34.751Z,1.30
2022-12-01T02:08:05.041Z,1.30
2022-12-01T02:10:47.967Z,1.10
2022-12-01T02:13:25.462Z,0.90
2022-12-01T02:16:02.884Z,0.60
2022-12-01T02:18:37.299Z,1.10
2022-12-01T02:21:22.844Z,0.90
2022-12-01T02:24:28.604Z,0.40
2022-12-01T02:27:03.681Z,1.40
2022-12-01T02:29:58.201Z,0.30
2022-12-01T02:32:32.741Z,0.80
2022-12-01T02:35:05.747Z,0.50
2022-12-01T02:37:38.524Z,1.00
2022-12-01T02:40:15.387Z,1.00
2022-12-01T02:42:54.147Z,1.20
2022-12-01T02:45:32.841Z,1.40
2022-12-01T02:48:06.369Z,1.00
2022-12-01T02:50:37.898Z,0.90
2022-12-01T02:53:10.416Z,1.30
2022-12-01T02:55:38.755Z,1.30
2022-12-01T02:58:15.179Z,1.10
2022-12-01T03:01:06.198Z,0.80
2022-12-01T03:03:50.133Z,1.20
2022-12-01T03:06:29.755Z,1.30
2022-12-01T03:09:08.302Z,0.60
2022-12-01T03:11:45.606Z,1.00
2022-12-01T03:14:24.599Z,1.40
2022-12-01T03:16:57.256Z,1.30
2022-12-01T03:19:34.006Z,1.30
2022-12-01T03:22:06.905Z,0.90
2022-12-01T03:24:36.105Z,1.00
2022-12-01T03:27:07.343Z,1.40
2022-12-01T03:29:41.452Z,1.80
2022-12-01T03:32:14.861Z,0.80
2022-12-01T03:34:49.974Z,1.20
2022-12-01T03:37:23.574Z,0.50
2022-12-01T03:39:59.954Z,1.00
2022-12-01T03:42:33.903Z,1.30
2022-12-01T03:45:08.873Z,1.50
2022-12-01T03:47:39.612Z,1.20
2022-12-01T03:50:14.263Z,1.40
2022-12-01T03:52:50.906Z,0.80
2022-12-01T03:55:29.538Z,1.30
2022-12-01T03:58:02.546Z,1.10
2022-12-01T04:00:32.404Z,0.80
2022-12-01T04:03:04.886Z,0.80
2022-12-01T04:05:35.852Z,1.20
2022-12-01T04:08:04.062Z,1.20
2022-12-01T04:10:33.054Z,0.80
2022-12-01T04:13:00.464Z,0.80
2022-12-01T04:15:31.020Z,1.60
2022-12-01T04:17:59.223Z,1.40
2022-12-01T04:20:27.362Z,1.50
2022-12-01T04:22:56.986Z,0.80
2022-12-01T04:25:25.129Z,1.70
2022-12-01T04:27:53.513Z,1.20
2022-12-01T04:30:23.570Z,0.70
2022-12-01T04:32:51.840Z,1.70
2022-12-01T04:35:20.219Z,1.30
2022-12-01T04:37:48.457Z,1.50
2022-12-01T04:40:19.212Z,1.60
2022-12-01T04:42:47.263Z,1.70
2022-12-01T04:45:15.527Z,1.50
2022-12-01T04:47:45.110Z,1.40
2022-12-01T04:50:13.605Z,1.30
2022-12-01T04:52:41.730Z,1.10
2022-12-01T04:55:10.819Z,0.80
2022-12-01T04:57:41.561Z,1.50
2022-12-01T05:00:13.410Z,2.10
2022-12-01T05:02:43.674Z,1.40
2022-12-01T05:05:12.113Z,0.90
2022-12-01T05:07:40.392Z,1.50
2022-12-01T05:10:09.816Z,1.70
2022-12-01T05:12:39.918Z,1.70
2022-12-01T05:15:09.386Z,1.80
2022-12-01T05:17:37.640Z,1.50
2022-12-01T05:20:24.598Z,1.70
2022-12-01T05:23:13.564Z,1.50
2022-12-01T05:25:58.936Z,1.20
2022-12-01T05:28:30.358Z,1.00
2022-12-01T05:30:58.864Z,0.80
2022-12-01T05:33:28.730Z,1.60
2022-12-01T05:35:57.233Z,1.80
2022-12-01T05:38:25.807Z,1.70
2022-12-01T05:40:55.855Z,1.70
2022-12-01T05:43:28.983Z,1.70
2022-12-01T05:46:00.345Z,1.20
2022-12-01T05:48:28.852Z,1.60
2022-12-01T05:50:57.048Z,1.70
2022-12-01T05:53:25.211Z,1.50
2022-12-01T05:55:54.583Z,1.70
2022-12-01T05:58:22.970Z,1.40
2022-12-01T06:00:58.661Z,1.70
2022-12-01T06:03:26.810Z,1.70
2022-12-01T06:05:55.113Z,1.40
2022-12-01T06:08:23.624Z,1.10
2022-12-01T06:10:51.760Z,1.00
2022-12-01T06:13:20.018Z,1.50
2022-12-01T06:15:56.579Z,1.30
2022-12-01T06:18:27.071Z,1.40
2022-12-01T06:20:55.313Z,1.10
2022-12-01T06:23:27.544Z,1.50
2022-12-01T06:25:58.487Z,1.60
2022-12-01T06:28:26.625Z,1.60
2022-12-01T06:31:01.035Z,1.50
2022-12-01T06:33:32.726Z,1.50
2022-12-01T06:36:01.263Z,1.70
2022-12-01T06:38:33.409Z,0.80
2022-12-01T06:41:02.214Z,1.60
2022-12-01T06:43:30.391Z,1.80
2022-12-01T06:46:02.016Z,1.50
2022-12-01T06:48:33.548Z,1.60
2022-12-01T06:51:02.489Z,1.70
2022-12-01T06:53:31.005Z,1.80
2022-12-01T06:56:01.289Z,1.90
2022-12-01T06:58:29.942Z,1.80
2022-12-01T07:00:58.879Z,2.00
2022-12-01T07:03:27.345Z,1.90
2022-12-01T07:06:01.820Z,2.00
2022-12-01T07:08:31.229Z,1.90
2022-12-01T07:11:00.835Z,1.60
2022-12-01T07:13:33.343Z,1.60
2022-12-01T07:16:20.310Z,1.20
2022-12-01T07:18:48.418Z,1.80
2022-12-01T07:21:18.489Z,1.70
2022-12-01T07:23:46.978Z,1.60
2022-12-01T07:26:16.646Z,1.70
2022-12-01T07:28:46.077Z,1.60
2022-12-01T07:31:16.296Z,1.70
2022-12-01T07:33:44.805Z,2.20
2022-12-01T07:36:14.127Z,1.60
2022-12-01T07:38:43.935Z,1.50
2022-12-01T07:41:15.634Z,1.80
2022-12-01T07:43:44.092Z,1.40
2022-12-01T07:46:20.305Z,1.60
2022-12-01T07:48:53.177Z,1.30
2022-12-01T07:51:22.525Z,1.10
2022-12-01T07:53:54.123Z,1.70
2022-12-01T07:56:23.374Z,1.80
2022-12-01T07:58:51.851Z,1.80
2022-12-01T08:01:21.549Z,1.30
2022-12-01T08:03:50.585Z,2.10
2022-12-01T08:06:19.881Z,1.70
2022-12-01T08:08:49.160Z,1.30
2022-12-01T08:11:22.320Z,1.70
2022-12-01T08:13:51.758Z,1.40
2022-12-01T08:16:21.269Z,1.40
2022-12-01T08:18:49.667Z,1.90
2022-12-01T08:21:20.405Z,1.10
2022-12-01T08:23:49.201Z,1.70
2022-12-01T08:26:20.250Z,1.80
2022-12-01T08:28:48.783Z,1.80
2022-12-01T08:31:20.510Z,2.00
2022-12-01T08:33:50.502Z,1.90
2022-12-01T08:36:20.528Z,1.80
2022-12-01T08:38:51.514Z,1.70
2022-12-01T08:41:29.273Z,1.90
2022-12-01T08:43:59.823Z,2.10
2022-12-01T08:46:37.663Z,2.00
2022-12-01T08:49:07.312Z,1.80
2022-12-01T08:51:36.336Z,1.70
2022-12-01T08:54:04.482Z,1.70
2022-12-01T08:56:36.434Z,1.90
2022-12-01T08:59:05.355Z,2.10
2022-12-01T09:01:51.803Z,1.70
2022-12-01T09:04:35.231Z,1.90
2022-12-01T09:07:26.044Z,2.20
2022-12-01T09:09:58.405Z,2.00
2022-12-01T09:12:30.750Z,1.90
2022-12-01T09:15:12.599Z,2.20
2022-12-01T09:17:40.745Z,2.10
2022-12-01T09:20:10.479Z,1.90
2022-12-01T09:22:42.071Z,2.20
2022-12-01T09:25:14.846Z,2.80
2022-12-01T09:27:45.054Z,2.20
2022-12-01T09:30:21.560Z,2.30
2022-12-01T09:32:49.697Z,2.30
2022-12-01T09:35:23.054Z,1.80
2022-12-01T09:37:51.530Z,2.10
2022-12-01T09:40:19.996Z,2.20
2022-12-01T09:42:49.803Z,2.40
2022-12-01T09:45:26.999Z,2.30
2022-12-01T09:47:58.486Z,2.30
2022-12-01T09:50:28.639Z,2.40
2022-12-01T09:53:01.779Z,2.40
2022-12-01T09:55:32.855Z,2.30
2022-12-01T09:58:05.171Z,1.70
2022-12-01T10:00:37.798Z,2.00
2022-12-01T10:03:17.949Z,2.40
2022-12-01T10:06:18.597Z,2.20
2022-12-01T10:08:42.711Z,2.30
2022-12-01T10:11:21.364Z,2.10
2022-12-01T10:13:51.287Z,2.60
2022-12-01T10:16:27.951Z,2.10
2022-12-01T10:19:02.817Z,2.20
2022-12-01T10:21:46.758Z,2.30
2022-12-01T10:24:30.721Z,2.00
2022-12-01T10:27:15.462Z,2.50
2022-12-01T10:29:49.577Z,2.20
2022-12-01T10:32:20.679Z,2.00
2022-12-01T10:34:49.773Z,2.50
2022-12-01T10:37:21.621Z,2.50
2022-12-01T10:39:52.449Z,2.40
2022-12-01T10:42:38.698Z,2.50
2022-12-01T10:45:22.158Z,2.30
2022-12-01T10:48:16.511Z,2.50
2022-12-01T10:50:47.484Z,2.70
2022-12-01T10:53:31.145Z,2.80
2022-12-01T10:56:08.142Z,2.40
2022-12-01T10:58:44.967Z,2.40
2022-12-01T11:01:25.038Z,2.30
2022-12-01T11:03:57.011Z,2.00
2022-12-01T11:06:27.901Z,2.40
2022-12-01T11:08:59.272Z,2.50
2022-12-01T11:11:32.643Z,2.30
2022-12-01T11:14:03.642Z,2.40
2022-12-01T11:16:42.678Z,2.40
2022-12-01T11:19:27.488Z,2.40
2022-12-01T11:21:57.726Z,2.40
2022-12-01T11:24:42.329Z,2.20
2022-12-01T11:27:18.009Z,2.70
2022-12-01T11:29:49.344Z,2.60
2022-12-01T11:32:25.419Z,2.10
2022-12-01T11:34:58.918Z,1.80
2022-12-01T11:37:32.902Z,2.70
2022-12-01T11:40:10.323Z,2.70
2022-12-01T11:42:41.383Z,2.70
2022-12-01T11:45:25.677Z,2.70
2022-12-01T11:48:04.452Z,2.20
2022-12-01T11:50:35.662Z,2.60
2022-12-01T11:53:05.046Z,2.70
2022-12-01T11:55:33.536Z,2.70
2022-12-01T11:58:05.034Z,2.30
2022-12-01T12:00:43.503Z,2.00
2022-12-01T12:03:30.757Z,3.10
2022-12-01T12:09:22.648Z,3.30
2022-12-01T12:11:59.966Z,2.90
2022-12-01T12:14:42.010Z,2.40
2022-12-01T12:17:20.767Z,2.80
2022-12-01T12:20:10.564Z,2.90
2022-12-01T12:22:55.498Z,2.90
2022-12-01T12:25:31.654Z,2.30
2022-12-01T12:28:18.394Z,2.80
2022-12-01T12:30:57.506Z,2.60
2022-12-01T12:33:48.925Z,2.80
2022-12-01T12:36:33.348Z,2.70
2022-12-01T12:39:13.566Z,2.70
2022-12-01T12:41:47.438Z,2.30
2022-12-01T12:44:48.415Z,2.40
2022-12-01T12:47:32.098Z,2.60
2022-12-01T12:50:11.972Z,3.00
2022-12-01T12:52:45.068Z,3.10
2022-12-01T12:55:20.317Z,2.50
2022-12-01T12:57:53.923Z,2.50
2022-12-01T13:00:25.161Z,2.90
2022-12-01T13:02:57.567Z,2.90
2022-12-01T13:05:29.461Z,2.70
2022-12-01T13:08:03.083Z,2.50
2022-12-01T13:10:39.459Z,3.10
2022-12-01T13:13:32.395Z,2.90
2022-12-01T13:16:13.156Z,2.80
2022-12-01T13:18:45.663Z,2.60
2022-12-01T13:21:24.358Z,3.10
2022-12-01T13:23:56.462Z,3.10
2022-12-01T13:26:25.548Z,2.50
2022-12-01T13:29:04.713Z,2.70
2022-12-01T13:31:52.190Z,2.90
2022-12-01T13:34:29.736Z,2.30
2022-12-01T13:37:03.762Z,2.70
2022-12-01T13:39:38.625Z,2.90
2022-12-01T13:42:08.691Z,2.80
2022-12-01T13:44:42.471Z,2.70
2022-12-01T13:51:02.420Z,2.60
2022-12-01T13:53:33.761Z,2.60
2022-12-01T13:56:43.011Z,2.90
2022-12-01T14:00:04.365Z,2.70
2022-12-01T14:02:36.955Z,2.60
2022-12-01T14:08:49.026Z,2.70
2022-12-01T14:11:23.693Z,2.70
2022-12-01T14:13:56.006Z,2.10
2022-12-01T14:16:36.763Z,2.80
2022-12-01T14:19:08.383Z,2.70
2022-12-01T14:21:49.918Z,2.50
2022-12-01T14:24:39.141Z,2.80
2022-12-01T14:30:00.383Z,2.80
2022-12-01T14:32:47.182Z,2.80
2022-12-01T14:35:17.325Z,2.70
2022-12-01T14:37:52.456Z,2.40
2022-12-01T14:40:26.946Z,2.80
2022-12-01T14:43:15.712Z,2.80
2022-12-01T14:46:09.705Z,2.80
2022-12-01T14:48:43.695Z,2.70
2022-12-01T14:51:20.152Z,2.60
2022-12-01T14:53:51.850Z,2.40
2022-12-01T14:56:29.973Z,2.10
2022-12-01T14:59:00.516Z,2.80
2022-12-01T15:01:33.812Z,2.40
2022-12-01T15:04:07.117Z,2.70
2022-12-01T15:06:37.304Z,2.60
2022-12-01T15:12:02.677Z,2.50
2022-12-01T15:14:33.490Z,2.00
2022-12-01T15:17:02.739Z,2.80
2022-12-01T15:19:44.149Z,2.40
2022-12-01T15:22:19.442Z,2.00
2022-12-01T15:24:48.028Z,2.40
2022-12-01T15:27:27.070Z,2.60
2022-12-01T15:29:58.700Z,2.20
2022-12-01T15:32:29.487Z,2.50
2022-12-01T15:35:06.351Z,2.30
2022-12-01T15:37:48.948Z,2.40
2022-12-01T15:43:21.092Z,2.50
2022-12-01T15:45:55.302Z,2.60
2022-12-01T15:48:35.740Z,2.50
2022-12-01T15:51:20.718Z,2.80
2022-12-01T15:53:55.344Z,2.40
2022-12-01T15:56:28.846Z,2.60
2022-12-01T15:59:00.950Z,2.50
2022-12-01T16:01:31.914Z,2.50
2022-12-01T16:04:03.787Z,1.80
2022-12-01T16:06:36.313Z,2.50
2022-12-01T16:09:07.180Z,2.00
2022-12-01T16:11:35.410Z,2.60
2022-12-01T16:14:08.123Z,2.40
2022-12-01T16:16:40.260Z,2.50
2022-12-01T16:19:27.822Z,2.20
2022-12-01T16:22:01.944Z,2.30
2022-12-01T16:24:33.336Z,2.20
2022-12-01T16:27:05.327Z,2.20
2022-12-01T16:29:43.973Z,2.50
2022-12-01T16:32:30.982Z,2.20
2022-12-01T16:34:59.358Z,2.50
2022-12-01T16:37:29.312Z,2.50
2022-12-01T16:39:58.476Z,2.00
2022-12-01T16:42:26.521Z,2.50
2022-12-01T16:44:54.615Z,2.60
2022-12-01T16:47:25.099Z,2.30
2022-12-01T16:49:54.037Z,2.60
2022-12-01T16:52:43.685Z,2.60
2022-12-01T16:55:34.762Z,2.80
2022-12-01T16:58:02.901Z,2.50
2022-12-01T17:00:31.454Z,2.10
2022-12-01T17:02:59.961Z,2.30
2022-12-01T17:05:28.601Z,2.20
2022-12-01T17:07:57.349Z,2.20
2022-12-01T17:10:26.001Z,2.30
2022-12-01T17:12:55.589Z,2.20
2022-12-01T17:15:23.869Z,2.20
2022-12-01T17:17:53.119Z,2.60
2022-12-01T17:20:22.322Z,2.60
2022-12-01T17:22:50.571Z,2.20
2022-12-01T17:25:19.238Z,2.50
2022-12-01T17:27:47.629Z,2.20
2022-12-01T17:30:26.087Z,2.60
2022-12-01T17:32:54.409Z,2.30
2022-12-01T17:35:22.678Z,2.30
2022-12-01T17:37:50.962Z,2.00
2022-12-01T17:40:19.653Z,2.50
2022-12-01T17:42:51.614Z,2.50
2022-12-01T17:45:42.143Z,2.30
2022-12-01T17:48:11.090Z,2.40
2022-12-01T17:50:45.401Z,2.20
2022-12-01T17:53:13.816Z,2.40
2022-12-01T17:55:41.904Z,2.50
2022-12-01T17:58:10.142Z,2.70
2022-12-01T18:00:39.766Z,2.30
2022-12-01T18:03:08.340Z,2.50
2022-12-01T18:05:36.949Z,1.90
2022-12-01T18:08:05.967Z,2.10
2022-12-01T18:13:31.296Z,2.60
2022-12-01T18:16:02.120Z,2.30
2022-12-01T18:18:34.763Z,2.70
2022-12-01T18:21:06.806Z,2.50
2022-12-01T18:23:36.195Z,2.50
2022-12-01T18:26:08.600Z,2.60
2022-12-01T18:28:41.116Z,2.80
2022-12-01T18:31:12.458Z,2.60
2022-12-01T18:33:44.438Z,2.70
2022-12-01T18:36:15.340Z,2.80
2022-12-01T18:38:44.276Z,2.80
2022-12-01T18:41:13.278Z,2.60
2022-12-01T18:43:41.466Z,2.60
2022-12-01T18:46:12.445Z,2.80
2022-12-01T18:48:45.663Z,2.10
2022-12-01T18:51:14.582Z,2.30
2022-12-01T18:53:43.414Z,2.70
2022-12-01T18:56:12.590Z,2.60
2022-12-01T18:58:41.469Z,2.70
2022-12-01T19:01:21.551Z,2.70
2022-12-01T19:03:59.624Z,2.70
2022-12-01T19:06:40.179Z,2.20
2022-12-01T19:09:11.231Z,2.50
2022-12-01T19:11:44.253Z,2.80
2022-12-01T19:14:21.431Z,2.60
2022-12-01T19:16:57.055Z,2.60
2022-12-01T19:19:37.116Z,2.80
2022-12-01T19:22:06.391Z,2.50
2022-12-01T19:24:49.904Z,2.40
2022-12-01T19:27:20.671Z,2.40
2022-12-01T19:29:59.933Z,2.50
2022-12-01T19:32:35.429Z,2.50
2022-12-01T19:35:04.481Z,2.60
2022-12-01T19:37:33.145Z,2.30
2022-12-01T19:40:01.450Z,2.50
2022-12-01T19:42:30.814Z,2.60
2022-12-01T19:44:59.513Z,2.60
2022-12-01T19:47:36.687Z,2.50
2022-12-01T19:50:08.500Z,2.60
2022-12-01T19:52:39.095Z,2.50
2022-12-01T19:55:08.910Z,2.70
2022-12-01T19:57:37.368Z,2.60
2022-12-01T20:00:11.478Z,2.50
2022-12-01T20:02:42.316Z,2.60
2022-12-01T20:05:19.464Z,2.60
2022-12-01T20:07:49.424Z,2.60
2022-12-01T20:10:20.482Z,2.10
2022-12-01T20:12:59.724Z,2.50
2022-12-01T20:15:28.024Z,2.80
2022-12-01T20:17:58.175Z,2.60
2022-12-01T20:20:26.459Z,2.60
2022-12-01T20:22:54.712Z,2.60
2022-12-01T20:25:23.060Z,2.60
2022-12-01T20:27:53.770Z,2.30
2022-12-01T20:30:22.012Z,2.10
2022-12-01T20:32:51.917Z,2.70
2022-12-01T20:35:21.988Z,2.60
2022-12-01T20:37:53.443Z,2.40
2022-12-01T20:40:22.971Z,2.50
2022-12-01T20:42:55.059Z,2.70
2022-12-01T20:45:24.782Z,2.70
2022-12-01T20:47:54.168Z,2.60
2022-12-01T20:50:37.306Z,2.90
2022-12-01T20:53:05.992Z,2.60
2022-12-01T20:55:35.505Z,2.50
2022-12-01T20:58:04.500Z,2.70
2022-12-01T21:00:56.797Z,2.80
2022-12-01T21:03:42.384Z,2.20
2022-12-01T21:06:13.484Z,2.70
2022-12-01T21:08:48.472Z,2.20
2022-12-01T21:12:00.994Z,2.50
2022-12-01T21:14:36.592Z,2.70
2022-12-01T21:17:26.471Z,2.70
2022-12-01T21:20:02.382Z,2.60
2022-12-01T21:22:32.299Z,2.30
2022-12-01T21:25:07.651Z,2.50
2022-12-01T21:27:38.628Z,2.10
2022-12-01T21:30:15.643Z,2.50
2022-12-01T21:32:44.643Z,2.50
2022-12-01T21:35:26.667Z,2.70
2022-12-01T21:38:02.116Z,2.10
2022-12-01T21:40:30.259Z,2.30
2022-12-01T21:43:11.196Z,2.70
2022-12-01T21:45:39.319Z,2.60
2022-12-01T21:48:17.949Z,2.50
2022-12-01T21:50:50.916Z,2.50
2022-12-01T21:53:26.078Z,2.50
2022-12-01T21:55:57.530Z,2.70
2022-12-01T21:58:38.579Z,2.40
2022-12-01T22:01:21.268Z,2.60
2022-12-01T22:03:49.546Z,2.20
2022-12-01T22:06:35.371Z,2.30
2022-12-01T22:09:16.026Z,2.70
2022-12-01T22:11:51.993Z,2.60
2022-12-01T22:14:36.760Z,2.50
2022-12-01T22:17:22.692Z,2.50
2022-12-01T22:19:57.095Z,2.70
2022-12-01T22:22:32.812Z,2.30
2022-12-01T22:25:32.982Z,2.00
2022-12-01T22:28:02.521Z,2.70
2022-12-01T22:30:33.919Z,2.50
2022-12-01T22:33:06.300Z,2.20
2022-12-01T22:35:45.080Z,2.40
2022-12-01T22:38:44.204Z,2.60
2022-12-01T22:41:21.513Z,2.60
2022-12-01T22:43:51.461Z,2.60
2022-12-01T22:46:32.171Z,2.30
2022-12-01T22:49:02.737Z,2.70
2022-12-01T22:51:40.998Z,2.40
2022-12-01T22:54:28.494Z,2.60
2022-12-01T22:57:27.074Z,2.60
2022-12-01T22:59:56.328Z,2.60
2022-12-01T23:02:28.225Z,2.60
2022-12-01T23:04:59.899Z,2.60
2022-12-01T23:07:31.284Z,2.30
2022-12-01T23:10:08.162Z,2.40
2022-12-01T23:12:38.325Z,2.70
2022-12-01T23:15:21.651Z,2.80
2022-12-01T23:17:50.217Z,2.70
2022-12-01T23:20:33.602Z,2.60
2022-12-01T23:23:04.343Z,2.70
2022-12-01T23:25:43.859Z,2.70
2022-12-01T23:28:14.756Z,2.60
2022-12-01T23:30:47.743Z,2.40
2022-12-01T23:33:24.119Z,2.20
2022-12-01T23:35:55.036Z,2.60
2022-12-01T23:38:25.858Z,2.60
2022-12-01T23:40:57.154Z,2.40
2022-12-01T23:43:30.526Z,2.70
2022-12-01T23:46:04.336Z,2.40
2022-12-01T23:48:40.669Z,2.50
2022-12-01T23:51:17.180Z,2.40
2022-12-01T23:53:45.757Z,2.70
2022-12-01T23:56:18.028Z,2.40
2022-12-01T23:58:48.342Z,2.60
